createdAt,value
2022-12-20T00:01:33.204Z,80.86
2022-12-20T00:04:02.581Z,80.61
2022-12-20T00:06:29.466Z,80.61
2022-12-20T00:08:57.449Z,80.43
2022-12-20T00:11:24.790Z,80.65
2022-12-20T00:13:51.816Z,80.41
2022-12-20T00:16:20.455Z,80.35
2022-12-20T00:18:47.731Z,80.40
2022-12-20T00:21:15.354Z,80.48
2022-12-20T00:23:42.619Z,80.58
2022-12-20T00:26:11.649Z,80.66
2022-12-20T00:28:38.915Z,80.06
2022-12-20T00:31:06.518Z,80.68
2022-12-20T00:33:34.390Z,80.56
2022-12-20T00:36:01.814Z,80.56
2022-12-20T00:38:28.716Z,80.71
2022-12-20T00:41:05.989Z,80.68
2022-12-20T00:43:33.254Z,80.80
2022-12-20T00:46:00.330Z,80.78
2022-12-20T00:48:27.438Z,80.80
2022-12-20T00:50:58.243Z,80.63
2022-12-20T00:53:26.718Z,80.76
2022-12-20T00:55:53.556Z,80.52
2022-12-20T00:58:20.411Z,80.30
2022-12-20T01:00:53.873Z,80.23
2022-12-20T01:03:23.668Z,79.86
2022-12-20T01:05:51.359Z,80.04
2022-12-20T01:08:17.962Z,80.05
2022-12-20T01:10:44.538Z,80.42
2022-12-20T01:13:11.266Z,80.47
2022-12-20T01:15:37.851Z,80.49
2022-12-20T01:18:04.521Z,80.58
2022-12-20T01:20:31.092Z,80.42
2022-12-20T01:22:57.764Z,80.56
2022-12-20T01:25:25.278Z,80.62
2022-12-20T01:27:52.279Z,80.49
2022-12-20T01:30:18.944Z,80.39
2022-12-20T01:32:45.594Z,80.40
2022-12-20T01:35:12.795Z,80.17
2022-12-20T01:37:39.386Z,80.29
2022-12-20T01:40:06.448Z,80.05
2022-12-20T01:42:33.045Z,80.09
2022-12-20T01:44:59.968Z,80.17
2022-12-20T01:47:28.498Z,80.35
2022-12-20T01:49:56.126Z,80.35
2022-12-20T01:52:31.334Z,80.56
2022-12-20T01:55:04.020Z,80.50
2022-12-20T01:57:41.170Z,80.80
2022-12-20T02:00:10.012Z,80.93
2022-12-20T02:02:44.010Z,80.78
2022-12-20T02:05:11.637Z,80.72
2022-12-20T02:07:38.806Z,80.93
2022-12-20T02:10:06.495Z,80.67
2022-12-20T02:12:43.508Z,81.02
2022-12-20T02:15:22.547Z,81.11
2022-12-20T02:17:52.474Z,81.21
2022-12-20T02:20:38.556Z,81.18
2022-12-20T02:23:35.469Z,81.39
2022-12-20T02:26:19.929Z,81.24
2022-12-20T02:28:49.626Z,81.29
2022-12-20T02:31:17.635Z,81.25
2022-12-20T02:33:48.015Z,81.24
2022-12-20T02:36:16.251Z,81.36
2022-12-20T02:38:43.077Z,81.27
2022-12-20T02:41:19.672Z,81.09
2022-12-20T02:44:07.433Z,81.16
2022-12-20T02:46:35.226Z,81.72
2022-12-20T02:49:03.454Z,81.47
2022-12-20T02:51:37.160Z,81.65
2022-12-20T02:54:04.518Z,81.52
2022-12-20T02:56:31.753Z,81.42
2022-12-20T02:59:02.359Z,81.48
2022-12-20T03:01:31.926Z,81.46
2022-12-20T03:03:59.313Z,81.60
2022-12-20T03:06:25.946Z,82.24
2022-12-20T03:08:52.960Z,82.54
2022-12-20T03:11:22.331Z,83.03
2022-12-20T03:13:48.979Z,82.66
2022-12-20T03:16:15.729Z,82.52
2022-12-20T03:18:42.459Z,82.58
2022-12-20T03:21:09.442Z,82.48
2022-12-20T03:23:36.129Z,82.55
2022-12-20T03:26:02.697Z,82.58
2022-12-20T03:28:41.335Z,82.35
2022-12-20T03:31:09.781Z,82.30
2022-12-20T03:33:44.189Z,82.06
2022-12-20T03:36:11.663Z,82.05
2022-12-20T03:38:38.215Z,82.56
2022-12-20T03:41:06.567Z,82.42
2022-12-20T03:43:33.106Z,82.21
2022-12-20T03:45:59.733Z,82.05
2022-12-20T03:48:28.608Z,81.85
2022-12-20T03:50:55.462Z,81.81
2022-12-20T03:53:22.050Z,81.86
2022-12-20T03:55:48.739Z,81.94
2022-12-20T03:58:15.913Z,82.09
2022-12-20T04:00:42.786Z,81.80
2022-12-20T04:03:47.853Z,81.50
2022-12-20T04:06:14.842Z,81.27
2022-12-20T04:08:41.975Z,80.69
2022-12-20T04:11:19.227Z,80.40
2022-12-20T04:13:54.565Z,80.21
2022-12-20T04:16:23.112Z,80.55
2022-12-20T04:18:50.008Z,80.35
2022-12-20T04:21:28.832Z,80.17
2022-12-20T04:23:58.320Z,80.12
2022-12-20T04:26:31.259Z,80.33
2022-12-20T04:28:59.876Z,79.76
2022-12-20T04:31:27.008Z,79.82
2022-12-20T04:33:54.554Z,80.24
2022-12-20T04:36:21.813Z,80.60
2022-12-20T04:38:50.983Z,81.63
2022-12-20T04:41:23.998Z,81.82
2022-12-20T04:43:57.472Z,81.93
2022-12-20T04:46:30.240Z,81.56
2022-12-20T04:48:59.830Z,81.63
2022-12-20T04:51:28.463Z,81.83
2022-12-20T04:53:55.308Z,81.71
2022-12-20T04:56:34.308Z,82.21
2022-12-20T04:59:07.811Z,81.15
2022-12-20T05:01:35.250Z,84.81
2022-12-20T05:04:02.310Z,82.77
2022-12-20T05:06:32.526Z,81.75
2022-12-20T05:08:59.222Z,81.53
2022-12-20T05:11:26.386Z,80.58
2022-12-20T05:13:53.201Z,80.07
2022-12-20T05:16:21.313Z,80.25
2022-12-20T05:18:49.552Z,80.48
2022-12-20T05:21:35.813Z,80.37
2022-12-20T05:24:22.062Z,80.35
2022-12-20T05:26:56.466Z,80.26
2022-12-20T05:29:23.102Z,80.26
2022-12-20T05:31:49.844Z,80.21
2022-12-20T05:34:16.601Z,80.24
2022-12-20T05:36:48.424Z,80.38
2022-12-20T05:39:15.244Z,80.60
2022-12-20T05:41:44.527Z,80.27
2022-12-20T05:44:11.360Z,80.10
2022-12-20T05:46:42.085Z,80.29
2022-12-20T05:49:14.116Z,79.74
2022-12-20T05:51:40.788Z,79.48
2022-12-20T05:54:17.743Z,79.39
2022-12-20T05:56:50.870Z,79.57
2022-12-20T05:59:22.424Z,79.64
2022-12-20T06:01:49.229Z,79.50
2022-12-20T06:04:16.029Z,79.37
2022-12-20T06:06:43.754Z,79.51
2022-12-20T06:09:13.626Z,80.06
2022-12-20T06:11:48.121Z,79.95
2022-12-20T06:14:15.306Z,79.75
2022-12-20T06:16:45.687Z,79.83
2022-12-20T06:19:19.430Z,80.09
2022-12-20T06:21:48.697Z,79.83
2022-12-20T06:24:18.849Z,79.65
2022-12-20T06:26:45.969Z,79.46
2022-12-20T06:29:14.381Z,79.53
2022-12-20T06:31:46.173Z,79.51
2022-12-20T06:34:13.778Z,79.30
2022-12-20T06:36:41.959Z,79.48
2022-12-20T06:39:14.523Z,79.51
2022-12-20T06:41:49.826Z,79.41
2022-12-20T06:44:16.622Z,79.35
2022-12-20T06:46:43.235Z,79.37
2022-12-20T06:49:10.298Z,79.22
2022-12-20T06:51:37.280Z,79.29
2022-12-20T06:54:04.982Z,79.08
2022-12-20T06:56:40.871Z,79.12
2022-12-20T06:59:10.074Z,78.88
2022-12-20T07:01:37.100Z,78.71
2022-12-20T07:04:04.036Z,78.72
2022-12-20T07:06:30.633Z,78.74
2022-12-20T07:08:57.226Z,79.04
2022-12-20T07:11:23.798Z,78.99
2022-12-20T07:13:56.779Z,78.81
2022-12-20T07:16:23.859Z,78.58
2022-12-20T07:18:52.575Z,78.71
2022-12-20T07:21:19.758Z,78.58
2022-12-20T07:23:46.938Z,78.63
2022-12-20T07:26:14.360Z,78.71
2022-12-20T07:28:41.067Z,78.82
2022-12-20T07:31:07.805Z,78.67
2022-12-20T07:33:34.622Z,78.54
2022-12-20T07:36:02.196Z,78.52
2022-12-20T07:38:29.312Z,78.61
2022-12-20T07:40:56.095Z,78.39
2022-12-20T07:43:22.742Z,78.21
2022-12-20T07:45:53.763Z,78.23
2022-12-20T07:48:21.951Z,78.07
2022-12-20T07:50:54.364Z,78.02
2022-12-20T07:53:22.563Z,77.83
2022-12-20T07:55:49.307Z,77.56
2022-12-20T07:58:17.369Z,77.67
2022-12-20T08:00:44.170Z,77.56
2022-12-20T08:03:13.895Z,77.46
2022-12-20T08:05:43.283Z,77.28
2022-12-20T08:08:09.994Z,77.29
2022-12-20T08:10:37.106Z,77.03
2022-12-20T08:13:04.339Z,76.63
2022-12-20T08:15:30.986Z,76.42
2022-12-20T08:17:57.908Z,76.00
2022-12-20T08:20:24.626Z,75.87
2022-12-20T08:22:51.355Z,75.88
2022-12-20T08:25:17.878Z,75.70
2022-12-20T08:27:44.873Z,75.71
2022-12-20T08:30:11.674Z,75.62
2022-12-20T08:32:38.330Z,75.57
2022-12-20T08:35:05.242Z,75.27
2022-12-20T08:37:31.892Z,75.57
2022-12-20T08:39:58.445Z,75.69
2022-12-20T08:42:25.140Z,75.67
2022-12-20T08:44:51.744Z,75.80
2022-12-20T08:47:18.406Z,75.08
2022-12-20T08:49:47.922Z,75.18
2022-12-20T08:52:15.237Z,75.02
2022-12-20T08:54:41.806Z,74.55
2022-12-20T08:57:09.499Z,74.86
2022-12-20T08:59:36.137Z,74.54
2022-12-20T09:02:02.862Z,73.87
2022-12-20T09:04:29.654Z,73.82
2022-12-20T09:06:56.217Z,73.47
2022-12-20T09:09:22.859Z,72.89
2022-12-20T09:11:49.480Z,72.79
2022-12-20T09:14:16.165Z,72.31
2022-12-20T09:16:42.759Z,72.44
2022-12-20T09:19:12.149Z,72.07
2022-12-20T09:21:38.750Z,71.77
2022-12-20T09:24:06.255Z,71.38
2022-12-20T09:26:35.341Z,71.32
2022-12-20T09:29:02.208Z,71.03
2022-12-20T09:31:28.928Z,71.21
2022-12-20T09:33:56.516Z,71.45
2022-12-20T09:36:23.927Z,71.33
2022-12-20T09:38:51.250Z,70.91
2022-12-20T09:41:30.076Z,70.77
2022-12-20T09:43:57.923Z,70.24
2022-12-20T09:46:25.160Z,70.17
2022-12-20T09:48:52.425Z,70.22
2022-12-20T09:51:21.952Z,69.94
2022-12-20T09:53:57.833Z,69.88
2022-12-20T09:56:30.173Z,69.41
2022-12-20T09:59:01.865Z,69.16
2022-12-20T10:01:36.243Z,69.05
2022-12-20T10:04:15.680Z,68.72
2022-12-20T10:06:54.297Z,68.53
2022-12-20T10:09:29.901Z,68.52
2022-12-20T10:11:56.878Z,68.39
2022-12-20T10:14:42.014Z,68.20
2022-12-20T10:17:12.743Z,68.10
2022-12-20T10:19:45.200Z,68.18
2022-12-20T10:22:19.469Z,68.34
2022-12-20T10:24:49.488Z,67.80
2022-12-20T10:27:18.655Z,67.70
2022-12-20T10:29:46.789Z,67.25
2022-12-20T10:32:14.720Z,67.47
2022-12-20T10:34:56.655Z,68.08
2022-12-20T10:37:23.336Z,68.87
2022-12-20T10:39:51.035Z,69.01
2022-12-20T10:42:30.647Z,68.86
2022-12-20T10:44:57.849Z,69.33
2022-12-20T10:47:39.723Z,69.51
2022-12-20T10:50:08.596Z,69.61
2022-12-20T10:52:35.146Z,69.68
2022-12-20T10:55:01.763Z,69.50
2022-12-20T10:57:29.400Z,69.40
2022-12-20T10:59:57.316Z,69.20
2022-12-20T11:02:25.416Z,69.50
2022-12-20T11:05:02.392Z,69.64
2022-12-20T11:07:33.473Z,69.48
2022-12-20T11:10:01.545Z,69.46
2022-12-20T11:12:28.368Z,69.62
2022-12-20T11:15:09.258Z,69.64
2022-12-20T11:17:43.548Z,69.55
2022-12-20T11:20:28.729Z,69.52
2022-12-20T11:23:14.739Z,69.29
2022-12-20T11:25:47.327Z,69.16
2022-12-20T11:28:36.631Z,69.34
2022-12-20T11:31:23.509Z,69.05
2022-12-20T11:34:03.407Z,68.58
2022-12-20T11:36:39.022Z,68.56
2022-12-20T11:39:05.702Z,68.75
2022-12-20T11:41:38.058Z,68.74
2022-12-20T11:44:27.229Z,68.54
2022-12-20T11:47:12.247Z,67.87
2022-12-20T11:49:59.805Z,67.26
2022-12-20T11:52:26.461Z,67.15
2022-12-20T11:54:59.256Z,66.74
2022-12-20T11:57:54.841Z,66.33
2022-12-20T12:00:19.857Z,66.30
2022-12-20T12:02:58.793Z,65.76
2022-12-20T12:05:45.841Z,65.31
2022-12-20T12:08:23.493Z,65.09
2022-12-20T12:10:56.454Z,64.42
2022-12-20T12:13:31.218Z,64.42
2022-12-20T12:16:01.667Z,64.52
2022-12-20T12:18:30.130Z,64.72
2022-12-20T12:21:09.012Z,64.82
2022-12-20T12:23:42.398Z,65.14
2022-12-20T12:26:24.223Z,65.28
2022-12-20T12:28:55.332Z,65.56
2022-12-20T12:31:31.251Z,65.50
2022-12-20T12:34:06.738Z,65.91
2022-12-20T12:37:05.667Z,66.40
2022-12-20T12:39:44.290Z,66.43
2022-12-20T12:42:10.942Z,66.74
2022-12-20T12:44:54.567Z,66.91
2022-12-20T12:47:30.407Z,67.48
2022-12-20T12:49:57.417Z,67.82
2022-12-20T12:52:44.666Z,67.85
2022-12-20T12:55:29.747Z,68.38
2022-12-20T12:57:57.302Z,68.60
2022-12-20T13:00:42.696Z,68.62
2022-12-20T13:03:15.976Z,68.48
2022-12-20T13:05:43.069Z,68.48
2022-12-20T13:08:17.351Z,68.75
2022-12-20T13:10:44.079Z,68.69
2022-12-20T13:13:21.169Z,68.75
2022-12-20T13:15:48.890Z,68.90
2022-12-20T13:18:15.533Z,68.55
2022-12-20T13:20:42.601Z,68.04
2022-12-20T13:23:09.237Z,67.81
2022-12-20T13:25:35.878Z,67.59
2022-12-20T13:28:22.698Z,67.97
2022-12-20T13:31:12.370Z,68.23
2022-12-20T13:33:39.152Z,68.08
2022-12-20T13:36:26.269Z,67.68
2022-12-20T13:38:54.513Z,67.42
2022-12-20T13:41:32.737Z,66.96
2022-12-20T13:44:10.753Z,66.84
2022-12-20T13:46:42.581Z,66.18
2022-12-20T13:49:11.981Z,66.12
2022-12-20T13:51:38.503Z,65.63
2022-12-20T13:54:06.697Z,65.58
2022-12-20T13:56:37.388Z,65.50
2022-12-20T13:59:19.108Z,65.25
2022-12-20T14:01:50.428Z,65.13
2022-12-20T14:04:18.219Z,64.93
2022-12-20T14:06:45.201Z,64.78
2022-12-20T14:09:32.160Z,64.53
2022-12-20T14:12:06.558Z,64.16
2022-12-20T14:15:01.148Z,63.99
2022-12-20T14:17:31.301Z,64.10
2022-12-20T14:20:17.455Z,63.99
2022-12-20T14:23:05.044Z,63.89
2022-12-20T14:25:38.946Z,63.74
2022-12-20T14:28:11.090Z,63.49
2022-12-20T14:30:42.648Z,63.60
2022-12-20T14:33:19.381Z,63.48
2022-12-20T14:35:47.595Z,63.41
2022-12-20T14:38:20.468Z,63.29
2022-12-20T14:40:53.639Z,63.31
2022-12-20T14:43:25.713Z,63.25
2022-12-20T14:46:06.944Z,63.36
2022-12-20T14:48:33.582Z,63.42
2022-12-20T14:51:00.156Z,63.43
2022-12-20T14:53:30.234Z,63.58
2022-12-20T14:55:56.858Z,63.76
2022-12-20T14:58:23.461Z,64.01
2022-12-20T15:00:57.849Z,64.09
2022-12-20T15:03:25.643Z,64.37
2022-12-20T15:05:53.372Z,64.63
2022-12-20T15:08:27.542Z,64.92
2022-12-20T15:11:12.441Z,65.21
2022-12-20T15:13:42.699Z,65.34
2022-12-20T15:16:12.471Z,65.40
2022-12-20T15:18:39.161Z,65.46
2022-12-20T15:21:10.564Z,65.79
2022-12-20T15:23:41.838Z,65.89
2022-12-20T15:26:12.355Z,66.18
2022-12-20T15:28:38.945Z,66.69
2022-12-20T15:31:05.576Z,66.80
2022-12-20T15:33:33.454Z,66.94
2022-12-20T15:36:00.045Z,67.16
2022-12-20T15:38:54.936Z,67.42
2022-12-20T15:41:24.730Z,67.47
2022-12-20T15:43:53.517Z,67.66
2022-12-20T15:46:20.212Z,67.99
2022-12-20T15:48:46.820Z,67.99
2022-12-20T15:51:33.619Z,68.04
2022-12-20T15:54:01.563Z,67.94
2022-12-20T15:56:28.489Z,68.20
2022-12-20T15:58:55.766Z,68.27
2022-12-20T16:01:39.782Z,68.31
2022-12-20T16:04:08.162Z,68.37
2022-12-20T16:06:34.766Z,68.33
2022-12-20T16:09:01.405Z,68.47
2022-12-20T16:11:29.619Z,68.36
2022-12-20T16:13:57.093Z,68.69
2022-12-20T16:16:28.221Z,69.02
2022-12-20T16:18:54.902Z,69.09
2022-12-20T16:21:22.754Z,69.31
2022-12-20T16:23:52.600Z,69.54
2022-12-20T16:26:22.018Z,69.80
2022-12-20T16:28:49.595Z,69.95
2022-12-20T16:31:22.023Z,70.06
2022-12-20T16:33:49.325Z,70.09
2022-12-20T16:36:16.209Z,70.35
2022-12-20T16:38:42.832Z,70.35
2022-12-20T16:41:16.971Z,70.53
2022-12-20T16:43:43.993Z,70.61
2022-12-20T16:46:16.647Z,70.62
2022-12-20T16:48:43.854Z,70.56
2022-12-20T16:51:29.913Z,70.92
2022-12-20T16:56:44.477Z,71.10
2022-12-20T16:59:20.636Z,71.09
2022-12-20T17:01:48.696Z,71.24
2022-12-20T17:04:16.537Z,71.31
2022-12-20T17:06:43.340Z,71.42
2022-12-20T17:11:54.439Z,71.47
2022-12-20T17:14:21.029Z,71.53
2022-12-20T17:16:47.789Z,71.43
2022-12-20T17:19:14.409Z,71.62
2022-12-20T17:24:26.745Z,71.64
2022-12-20T17:26:53.338Z,71.67
2022-12-20T17:29:20.558Z,71.76
2022-12-20T17:31:47.922Z,71.79
2022-12-20T17:34:19.155Z,71.87
2022-12-20T17:36:46.457Z,72.01
2022-12-20T17:39:13.632Z,72.11
2022-12-20T17:41:42.554Z,72.26
2022-12-20T17:44:17.570Z,72.39
2022-12-20T17:46:44.239Z,72.42
2022-12-20T17:49:10.862Z,72.29
2022-12-20T17:51:37.498Z,72.44
2022-12-20T17:54:04.113Z,72.78
2022-12-20T17:56:31.857Z,72.70
2022-12-20T17:58:59.050Z,72.66
2022-12-20T18:01:26.998Z,72.82
2022-12-20T18:04:04.402Z,72.77
2022-12-20T18:06:32.688Z,72.81
2022-12-20T18:08:59.945Z,72.65
2022-12-20T18:11:28.256Z,72.69
2022-12-20T18:13:56.366Z,72.35
2022-12-20T18:16:25.268Z,72.35
2022-12-20T18:18:53.428Z,72.33
2022-12-20T18:21:20.698Z,72.40
2022-12-20T18:23:47.907Z,72.21
2022-12-20T18:26:20.669Z,72.37
2022-12-20T18:28:48.113Z,72.27
2022-12-20T18:31:16.242Z,72.48
2022-12-20T18:33:42.854Z,72.30
2022-12-20T18:36:10.852Z,72.45
2022-12-20T18:38:38.710Z,72.50
2022-12-20T18:41:06.380Z,72.28
2022-12-20T18:43:33.626Z,72.53
2022-12-20T18:46:04.414Z,72.55
2022-12-20T18:48:31.460Z,72.49
2022-12-20T18:51:03.062Z,72.48
2022-12-20T18:53:31.444Z,72.14
2022-12-20T18:56:00.889Z,72.25
2022-12-20T18:58:27.519Z,72.05
2022-12-20T19:00:57.143Z,71.80
2022-12-20T19:03:23.864Z,71.81
2022-12-20T19:05:55.121Z,72.04
2022-12-20T19:08:22.303Z,72.00
2022-12-20T19:10:49.297Z,72.20
2022-12-20T19:13:17.777Z,72.05
2022-12-20T19:15:44.981Z,71.98
2022-12-20T19:18:11.578Z,71.72
2022-12-20T19:20:39.057Z,71.83
2022-12-20T19:23:05.735Z,72.04
2022-12-20T19:25:35.805Z,72.02
2022-12-20T19:28:02.890Z,71.82
2022-12-20T19:30:30.147Z,71.88
2022-12-20T19:32:56.966Z,72.04
2022-12-20T19:35:54.034Z,72.03
2022-12-20T19:38:10.171Z,72.02
2022-12-20T19:40:36.908Z,72.24
2022-12-20T19:43:03.581Z,72.28
2022-12-20T19:45:30.171Z,72.34
2022-12-20T19:47:56.820Z,72.31
2022-12-20T19:50:23.426Z,72.55
2022-12-20T19:52:51.456Z,72.57
2022-12-20T19:55:18.146Z,72.63
2022-12-20T19:57:44.815Z,72.76
2022-12-20T20:00:11.721Z,72.83
2022-12-20T20:02:38.480Z,72.68
2022-12-20T20:05:11.080Z,72.42
2022-12-20T20:07:41.256Z,72.58
2022-12-20T20:10:08.435Z,72.47
2022-12-20T20:12:38.327Z,72.72
2022-12-20T20:15:05.234Z,72.75
2022-12-20T20:17:31.794Z,72.65
2022-12-20T20:19:58.396Z,72.76
2022-12-20T20:22:25.431Z,72.87
2022-12-20T20:24:52.145Z,73.01
2022-12-20T20:27:18.684Z,73.15
2022-12-20T20:29:45.317Z,73.43
2022-12-20T20:32:11.909Z,73.58
2022-12-20T20:34:38.604Z,73.34
2022-12-20T20:37:05.240Z,73.58
2022-12-20T20:39:31.914Z,73.48
2022-12-20T20:41:58.566Z,73.51
2022-12-20T20:44:25.206Z,73.56
2022-12-20T20:46:51.820Z,74.12
2022-12-20T20:49:19.745Z,74.60
2022-12-20T20:51:46.321Z,74.76
2022-12-20T20:54:13.269Z,75.09
2022-12-20T20:56:39.809Z,75.04
2022-12-20T20:59:10.516Z,75.00
2022-12-20T21:01:42.067Z,74.60
2022-12-20T21:04:08.746Z,74.70
2022-12-20T21:06:41.025Z,74.51
2022-12-20T21:09:08.788Z,74.41
2022-12-20T21:11:37.010Z,74.66
2022-12-20T21:14:03.955Z,75.10
2022-12-20T21:16:30.624Z,75.18
2022-12-20T21:18:58.461Z,75.14
2022-12-20T21:21:26.134Z,75.00
2022-12-20T21:23:52.947Z,75.13
2022-12-20T21:26:20.601Z,75.21
2022-12-20T21:28:47.589Z,75.40
2022-12-20T21:31:15.510Z,75.47
2022-12-20T21:33:42.400Z,75.23
2022-12-20T21:36:11.693Z,75.21
2022-12-20T21:38:38.439Z,75.28
2022-12-20T21:41:06.931Z,75.92
2022-12-20T21:43:33.601Z,77.10
2022-12-20T21:46:00.503Z,77.06
2022-12-20T21:48:27.531Z,76.94
2022-12-20T21:51:10.113Z,77.01
2022-12-20T21:53:43.955Z,77.00
2022-12-20T21:56:10.941Z,76.53
2022-12-20T21:58:37.708Z,76.55
2022-12-20T22:01:05.412Z,76.70
2022-12-20T22:03:32.118Z,76.52
2022-12-20T22:05:58.831Z,76.47
2022-12-20T22:08:26.297Z,76.89
2022-12-20T22:11:19.203Z,76.77
2022-12-20T22:13:46.354Z,76.51
2022-12-20T22:16:18.543Z,76.58
2022-12-20T22:18:48.315Z,76.63
2022-12-20T22:21:15.601Z,76.34
2022-12-20T22:23:42.566Z,76.60
2022-12-20T22:26:10.574Z,76.66
2022-12-20T22:28:37.388Z,76.74
2022-12-20T22:31:11.098Z,76.72
2022-12-20T22:33:38.228Z,77.19
2022-12-20T22:36:05.107Z,76.98
2022-12-20T22:38:31.745Z,77.11
2022-12-20T22:41:10.220Z,77.36
2022-12-20T22:43:37.698Z,76.98
2022-12-20T22:46:04.813Z,76.67
2022-12-20T22:48:31.765Z,76.74
2022-12-20T22:50:59.580Z,77.18
2022-12-20T22:53:26.409Z,77.08
2022-12-20T22:55:52.979Z,77.36
2022-12-20T22:58:19.584Z,76.89
2022-12-20T23:00:47.014Z,77.12
2022-12-20T23:03:14.063Z,77.88
2022-12-20T23:05:42.283Z,77.77
2022-12-20T23:08:08.894Z,77.55
2022-12-20T23:10:53.937Z,77.42
2022-12-20T23:13:38.926Z,77.56
2022-12-20T23:16:05.607Z,77.09
2022-12-20T23:18:32.255Z,77.16
2022-12-20T23:21:17.545Z,77.24
2022-12-20T23:23:44.122Z,77.24
2022-12-20T23:26:15.196Z,77.35
2022-12-20T23:28:42.204Z,77.24
2022-12-20T23:31:09.240Z,77.11
2022-12-20T23:33:36.372Z,77.08
2022-12-20T23:36:03.637Z,76.90
2022-12-20T23:38:33.666Z,76.63
2022-12-20T23:41:00.342Z,76.55
2022-12-20T23:43:30.385Z,76.34
2022-12-20T23:46:05.091Z,76.60
2022-12-20T23:48:32.212Z,76.55
2022-12-20T23:50:59.286Z,76.52
2022-12-20T23:53:26.253Z,76.31
2022-12-20T23:56:12.061Z,77.55
2022-12-20T23:58:38.971Z,77.43
